Time;durP1;ratioP1;P1;durP2;ratioP2;P2;SDS_P1;SDS_P2;PMS_P1;PMS_P2;Temp;Humidity;BMP_temperature;BMP_pressure;BME280_temperature;BME280_humidity;BME280_pressure;Samples;Min_cycle;Max_cycle;Signal;HPM_P1;HPM_P2
2023/03/14 00:00:21;;;;;;;0.30;0.20;;;;;;;11.92;100.00;98303.94;4997690;28;20569;-51
2023/03/14 00:02:54;;;;;;;0.40;0.30;;;;;;;11.80;100.00;98302.97;4989868;28;20434;-51
2023/03/14 00:05:21;;;;;;;11.80;0.60;;;;;;;11.86;100.00;98313.19;5006024;28;20450;-51
2023/03/14 00:07:47;;;;;;;0.40;0.40;;;;;;;11.93;100.00;98305.69;5003016;28;20464;-51
2023/03/14 00:10:15;;;;;;;0.37;0.27;;;;;;;11.96;100.00;98308.13;4997782;28;20469;-51
2023/03/14 00:12:42;;;;;;;0.40;0.30;;;;;;;12.01;100.00;98304.19;5001693;28;20485;-51
2023/03/14 00:15:09;;;;;;;1.00;0.90;;;;;;;12.09;100.00;98275.25;5005483;28;20457;-51
2023/03/14 00:17:35;;;;;;;2.83;0.97;;;;;;;12.08;100.00;98275.38;5003379;28;20448;-51
2023/03/14 00:20:07;;;;;;;0.50;0.30;;;;;;;12.03;100.00;98280.13;4998953;28;20523;-51
2023/03/14 00:22:35;;;;;;;1.23;0.60;;;;;;;11.99;100.00;98281.31;4999996;28;20557;-51
2023/03/14 00:25:03;;;;;;;0.40;0.30;;;;;;;12.02;100.00;98273.09;5005557;28;20450;-51
2023/03/14 00:27:29;;;;;;;0.60;0.60;;;;;;;11.96;100.00;98268.19;5004999;28;20503;-51
2023/03/14 00:29:56;;;;;;;1.57;1.00;;;;;;;12.01;99.91;98258.94;4998371;28;20465;-51
2023/03/14 00:32:23;;;;;;;0.30;0.20;;;;;;;11.95;100.00;98243.38;4999265;28;20548;-51
2023/03/14 00:34:49;;;;;;;3.97;0.50;;;;;;;11.86;100.00;98233.34;5005273;28;20449;-51
2023/03/14 00:37:16;;;;;;;0.40;0.20;;;;;;;11.83;100.00;98228.22;5004935;28;20455;-51
2023/03/14 00:39:42;;;;;;;0.80;0.30;;;;;;;11.95;100.00;98230.06;4997313;28;20495;-51
2023/03/14 00:42:09;;;;;;;0.40;0.30;;;;;;;11.99;100.00;98226.25;4998981;28;20449;-51
2023/03/14 00:44:35;;;;;;;0.40;0.30;;;;;;;11.91;100.00;98228.53;5004410;28;20449;-51
2023/03/14 00:47:02;;;;;;;1.30;0.57;;;;;;;11.76;100.00;98219.75;5004966;28;20548;-51
2023/03/14 00:49:28;;;;;;;2.77;1.57;;;;;;;11.83;99.81;98222.91;4999181;28;20445;-51
2023/03/14 00:51:54;;;;;;;11.63;0.67;;;;;;;11.98;100.00;98239.66;4990436;28;20487;-51
2023/03/14 00:54:21;;;;;;;0.60;0.60;;;;;;;11.87;99.36;98248.34;4999514;28;20911;-51
2023/03/14 00:56:47;;;;;;;0.80;0.40;;;;;;;11.90;99.50;98253.47;4998196;28;20445;-51
2023/03/14 00:59:15;;;;;;;0.37;0.30;;;;;;;11.69;100.00;98249.56;5003667;28;20450;-51
2023/03/14 01:01:42;;;;;;;0.60;0.47;;;;;;;11.71;100.00;98258.28;4993346;28;20528;-51
2023/03/14 01:04:08;;;;;;;1.07;0.30;;;;;;;11.83;100.00;98257.50;4999502;28;20961;-51
2023/03/14 01:06:35;;;;;;;0.60;0.60;;;;;;;11.77;100.00;98266.69;4998221;28;20457;-51
2023/03/14 01:09:02;;;;;;;0.53;0.53;;;;;;;11.94;100.00;98255.00;5003448;28;20812;-51
2023/03/14 01:11:34;;;;;;;0.97;0.63;;;;;;;11.74;100.00;98239.44;5004660;28;20474;-51
2023/03/14 01:14:03;;;;;;;5.33;0.80;;;;;;;11.77;100.00;98247.22;5000391;28;20460;-51
2023/03/14 01:16:32;;;;;;;0.70;0.40;;;;;;;11.82;100.00;98263.78;4998020;28;20545;-51
2023/03/14 01:18:58;;;;;;;1.00;0.83;;;;;;;11.82;100.00;98251.34;5001843;28;20485;-51
2023/03/14 01:21:28;;;;;;;1.23;0.50;;;;;;;11.71;100.00;98252.97;5004436;28;20490;-51
2023/03/14 01:23:57;;;;;;;0.90;0.60;;;;;;;11.66;100.00;98242.63;5001256;28;20445;-51
2023/03/14 01:26:26;;;;;;;1.07;1.00;;;;;;;11.65;100.00;98256.91;4997915;28;21174;-51
2023/03/14 01:28:54;;;;;;;10.80;0.70;;;;;;;11.65;100.00;98253.34;5000796;28;20453;-51
2023/03/14 01:31:21;;;;;;;1.60;0.40;;;;;;;11.69;100.00;98252.22;5004375;28;20470;-51
2023/03/14 01:33:47;;;;;;;2.30;0.40;;;;;;;11.78;100.00;98244.44;5002267;28;20448;-51
2023/03/14 01:36:14;;;;;;;0.57;0.40;;;;;;;11.72;100.00;98236.03;4997681;28;20453;-51
2023/03/14 01:38:41;;;;;;;0.77;0.77;;;;;;;11.67;100.00;98232.84;4999373;28;20485;-51
2023/03/14 01:41:14;;;;;;;0.47;0.30;;;;;;;11.51;100.00;98231.19;5004268;28;20497;-51
2023/03/14 01:43:40;;;;;;;6.90;0.83;;;;;;;11.75;100.00;98233.16;5003247;28;20445;-51
2023/03/14 01:46:08;;;;;;;1.13;0.70;;;;;;;11.78;100.00;98233.81;4997643;28;20452;-51
2023/03/14 01:48:35;;;;;;;0.70;0.57;;;;;;;11.67;100.00;98211.53;4997628;28;20827;-51
2023/03/14 01:51:02;;;;;;;0.40;0.30;;;;;;;11.80;100.00;98221.31;4996915;28;20968;-51
2023/03/14 01:53:29;;;;;;;3.03;1.37;;;;;;;11.62;100.00;98210.97;5004261;28;20456;-51
2023/03/14 01:55:57;;;;;;;0.43;0.40;;;;;;;11.58;100.00;98210.34;4998186;28;20983;-51
2023/03/14 01:58:27;;;;;;;5.83;1.70;;;;;;;11.56;100.00;98210.44;4997441;28;20449;-51
2023/03/14 02:00:57;;;;;;;9.20;0.60;;;;;;;11.68;100.00;98202.59;5002631;28;20520;-51
2023/03/14 02:03:24;;;;;;;0.40;0.30;;;;;;;11.57;100.00;98190.00;5004180;28;20452;-51
2023/03/14 02:05:56;;;;;;;0.97;0.97;;;;;;;11.79;100.00;98181.47;4999124;28;20547;-51
2023/03/14 02:08:24;;;;;;;0.50;0.30;;;;;;;11.52;100.00;98176.16;4997416;28;20523;-51
2023/03/14 02:10:51;;;;;;;0.40;0.30;;;;;;;11.68;100.00;98182.16;5000853;28;20472;-51
2023/03/14 02:13:20;;;;;;;0.40;0.40;;;;;;;11.49;100.00;98173.69;5003933;28;20454;-51
2023/03/14 02:15:47;;;;;;;0.40;0.30;;;;;;;11.57;100.00;98158.94;5000783;28;20957;-51
2023/03/14 02:18:15;;;;;;;0.70;0.70;;;;;;;11.37;100.00;98162.03;4996808;28;20456;-51
2023/03/14 02:21:06;;;;;;;9.33;0.70;;;;;;;11.41;100.00;98162.72;4999957;28;20497;-51
2023/03/14 02:23:53;;;;;;;0.70;0.67;;;;;;;11.46;100.00;98157.94;4985941;28;20449;-51
2023/03/14 02:26:35;;;;;;;1.23;0.77;;;;;;;11.50;100.00;98148.78;4997428;28;20462;-51
2023/03/14 02:29:02;;;;;;;6.07;1.90;;;;;;;11.52;100.00;98146.91;4998062;28;20453;-51
2023/03/14 02:31:28;;;;;;;2.77;0.53;;;;;;;11.65;100.00;98154.88;5003572;28;20527;-51
2023/03/14 02:33:56;;;;;;;0.40;0.30;;;;;;;11.53;100.00;98157.44;5002901;28;20539;-51
2023/03/14 02:36:23;;;;;;;2.00;1.90;;;;;;;11.36;100.00;98157.69;4996689;28;20822;-51
2023/03/14 02:38:55;;;;;;;0.60;0.50;;;;;;;11.42;100.00;98148.47;4997511;28;20453;-51
2023/03/14 02:41:22;;;;;;;0.50;0.30;;;;;;;11.45;100.00;98156.22;4997565;28;20493;-51
2023/03/14 02:43:48;;;;;;;3.80;0.60;;;;;;;11.37;100.00;98143.41;4995962;28;20954;-51
2023/03/14 02:46:19;;;;;;;0.43;0.40;;;;;;;11.50;100.00;98141.66;4997420;28;20457;-51
2023/03/14 02:49:00;;;;;;;0.60;0.40;;;;;;;11.51;100.00;98145.16;4996623;28;20493;-51
2023/03/14 02:51:27;;;;;;;1.23;0.90;;;;;;;11.34;100.00;98138.31;4995571;28;20471;-51
2023/03/14 02:53:54;;;;;;;0.40;0.30;;;;;;;11.44;100.00;98131.44;4991028;28;20462;-51
2023/03/14 02:56:20;;;;;;;21.27;1.03;;;;;;;11.48;100.00;98132.06;4998558;28;20866;-51
2023/03/14 02:58:47;;;;;;;2.67;0.93;;;;;;;11.53;100.00;98128.16;5003176;28;20445;-51
2023/03/14 03:01:13;;;;;;;0.50;0.50;;;;;;;11.44;100.00;98127.94;4993840;28;20498;-51
2023/03/14 03:03:40;;;;;;;0.60;0.50;;;;;;;11.36;100.00;98128.41;5000326;28;20480;-51
2023/03/14 03:06:06;;;;;;;5.40;1.00;;;;;;;11.31;100.00;98127.03;5000366;28;20467;-51
2023/03/14 03:08:33;;;;;;;0.57;0.57;;;;;;;11.33;100.00;98117.16;4996539;28;20452;-51
2023/03/14 03:11:00;;;;;;;4.13;1.77;;;;;;;11.31;100.00;98114.59;4999017;28;20473;-51
2023/03/14 03:13:26;;;;;;;7.60;0.67;;;;;;;11.57;100.00;98110.19;5003047;28;20456;-51
2023/03/14 03:15:53;;;;;;;5.40;0.40;;;;;;;11.48;100.00;98092.16;5000486;28;20893;-51
2023/03/14 03:18:20;;;;;;;1.17;0.30;;;;;;;11.47;99.96;98090.47;4996437;28;20455;-51
2023/03/14 03:20:47;;;;;;;0.57;0.37;;;;;;;11.46;99.97;98084.28;4998348;28;20494;-51
2023/03/14 03:23:13;;;;;;;0.50;0.33;;;;;;;11.59;100.00;98081.66;5002703;28;20463;-51
2023/03/14 03:25:40;;;;;;;0.57;0.50;;;;;;;11.48;100.00;98090.38;5000928;28;20523;-51
2023/03/14 03:28:07;;;;;;;0.40;0.40;;;;;;;11.46;100.00;98094.09;4996156;28;20460;-51
2023/03/14 03:30:41;;;;;;;0.40;0.30;;;;;;;11.40;100.00;98098.03;4997171;28;20469;-51
2023/03/14 03:33:08;;;;;;;4.67;0.47;;;;;;;11.45;100.00;98098.56;4976682;28;20445;-51
2023/03/14 03:35:35;;;;;;;1.60;1.30;;;;;;;11.54;100.00;98091.78;5001924;28;20456;-50
2023/03/14 03:38:01;;;;;;;0.40;0.30;;;;;;;11.44;100.00;98072.06;4995963;28;21004;-51
2023/03/14 03:40:28;;;;;;;2.97;0.73;;;;;;;11.33;100.00;98079.91;4996967;28;20497;-51
2023/03/14 03:42:54;;;;;;;4.73;0.40;;;;;;;11.37;100.00;98068.94;5002528;28;20453;-51
2023/03/14 03:45:21;;;;;;;1.57;0.43;;;;;;;11.41;99.92;98070.47;4989640;28;20499;-51
2023/03/14 03:47:47;;;;;;;0.97;0.60;;;;;;;11.57;99.49;98057.81;5002450;28;20455;-51
2023/03/14 03:50:14;;;;;;;0.40;0.30;;;;;;;11.50;99.59;98051.19;5002444;28;21004;-51
2023/03/14 03:52:40;;;;;;;5.63;0.60;;;;;;;11.55;99.94;98048.25;4982290;28;20958;-51
2023/03/14 03:55:07;;;;;;;0.40;0.20;;;;;;;11.46;99.89;98048.88;5002597;28;20922;-51
2023/03/14 03:57:34;;;;;;;1.70;0.40;;;;;;;11.22;100.00;98040.72;4996565;28;20452;-51
2023/03/14 04:00:01;;;;;;;0.47;0.33;;;;;;;11.39;100.00;98043.13;4995667;28;20484;-51
2023/03/14 04:02:27;;;;;;;0.40;0.40;;;;;;;11.31;100.00;98048.09;4989605;28;20939;-52
2023/03/14 04:04:55;;;;;;;16.63;0.87;;;;;;;11.11;100.00;98049.44;5002659;28;20532;-51
2023/03/14 04:07:22;;;;;;;0.77;0.40;;;;;;;11.34;100.00;98053.19;4997889;28;20459;-51
2023/03/14 04:09:48;;;;;;;0.40;0.30;;;;;;;11.24;100.00;98060.13;4998646;28;20973;-51
2023/03/14 04:12:15;;;;;;;1.30;1.23;;;;;;;11.33;100.00;98061.28;5004868;28;20453;-51
2023/03/14 04:14:41;;;;;;;0.43;0.37;;;;;;;11.27;100.00;98065.22;5005661;28;20448;-51
2023/03/14 04:17:07;;;;;;;0.30;0.20;;;;;;;11.19;100.00;98055.09;5000047;28;20514;-51
2023/03/14 04:19:34;;;;;;;1.00;0.57;;;;;;;11.26;100.00;98074.16;4998649;28;20935;-51
2023/03/14 04:22:00;;;;;;;0.40;0.30;;;;;;;11.15;100.00;98066.03;5004106;28;20489;-51
2023/03/14 04:24:27;;;;;;;0.50;0.30;;;;;;;11.21;100.00;98062.97;5005543;28;20823;-52
2023/03/14 04:26:53;;;;;;;0.30;0.20;;;;;;;11.28;100.00;98058.94;5000663;28;21006;-51
2023/03/14 04:29:20;;;;;;;4.00;1.13;;;;;;;11.19;100.00;98049.78;4998468;28;20973;-51
2023/03/14 04:31:46;;;;;;;0.40;0.30;;;;;;;11.15;100.00;98053.59;5003501;28;20481;-51
2023/03/14 04:34:13;;;;;;;0.30;0.20;;;;;;;11.19;100.00;98049.78;5005655;28;20463;-51
2023/03/14 04:36:39;;;;;;;0.50;0.50;;;;;;;11.09;100.00;98050.47;5000280;28;20491;-51
2023/03/14 04:39:05;;;;;;;1.00;0.90;;;;;;;11.05;100.00;98054.31;4998694;28;20449;-51
2023/03/14 04:41:32;;;;;;;0.70;0.70;;;;;;;11.01;100.00;98058.97;5003548;28;20500;-51
2023/03/14 04:43:59;;;;;;;31.17;1.90;;;;;;;11.07;100.00;98055.91;5004914;28;20549;-51
2023/03/14 04:46:25;;;;;;;0.43;0.30;;;;;;;10.89;100.00;98047.34;5000538;28;20449;-51
2023/03/14 04:48:52;;;;;;;2.63;0.27;;;;;;;10.92;100.00;98065.75;4998618;28;20462;-51
2023/03/14 04:51:18;;;;;;;0.40;0.30;;;;;;;10.91;100.00;98065.84;4999813;28;20520;-51
2023/03/14 04:53:44;;;;;;;2.20;0.90;;;;;;;10.86;100.00;98063.50;4977486;28;20455;-50
2023/03/14 04:56:12;;;;;;;1.77;0.50;;;;;;;11.19;100.00;98067.53;5002670;28;20548;-50
2023/03/14 04:58:39;;;;;;;0.73;0.60;;;;;;;11.06;100.00;98058.66;5004790;28;20469;-50
2023/03/14 05:01:06;;;;;;;0.73;0.40;;;;;;;10.95;100.00;98051.41;4996721;28;20504;-50
2023/03/14 05:03:32;;;;;;;0.40;0.30;;;;;;;10.98;100.00;98062.72;5001199;28;20515;-50
2023/03/14 05:06:00;;;;;;;0.83;0.30;;;;;;;10.98;100.00;98054.72;4991812;28;20449;-50
2023/03/14 05:08:27;;;;;;;0.40;0.30;;;;;;;11.07;100.00;98049.75;5004661;28;20559;-50
2023/03/14 05:10:55;;;;;;;0.40;0.30;;;;;;;11.19;100.00;98047.13;5001406;28;20556;-50
2023/03/14 05:13:22;;;;;;;4.60;0.53;;;;;;;10.93;100.00;98040.88;4997860;28;20449;-50
2023/03/14 05:15:50;;;;;;;0.30;0.20;;;;;;;10.90;100.00;98046.41;4999579;28;20499;-50
2023/03/14 05:18:17;;;;;;;0.57;0.40;;;;;;;10.98;100.00;98027.28;5004204;28;20454;-50
2023/03/14 05:20:44;;;;;;;0.40;0.30;;;;;;;11.06;100.00;98016.13;5002210;28;20494;-50
2023/03/14 05:23:11;;;;;;;2.00;0.53;;;;;;;10.83;100.00;98017.69;4997607;28;20522;-50
2023/03/14 05:25:37;;;;;;;0.37;0.30;;;;;;;10.91;100.00;98010.03;5010812;28;20455;-50
2023/03/14 05:28:04;;;;;;;0.87;0.87;;;;;;;11.04;100.00;98008.25;4997402;28;20449;-50
2023/03/14 05:30:32;;;;;;;0.30;0.20;;;;;;;10.75;100.00;98014.66;4999136;28;20612;-50
2023/03/14 05:32:58;;;;;;;0.40;0.20;;;;;;;10.87;100.00;98006.75;4979794;28;21041;-49
2023/03/14 05:35:25;;;;;;;1.40;0.70;;;;;;;10.76;100.00;98019.88;5003262;28;20449;-49
2023/03/14 05:37:51;;;;;;;0.30;0.20;;;;;;;10.87;100.00;98012.06;4997621;28;20518;-51
2023/03/14 05:40:18;;;;;;;0.40;0.27;;;;;;;10.88;100.00;98021.72;4998051;28;20478;-51
2023/03/14 05:42:44;;;;;;;1.50;0.87;;;;;;;10.84;100.00;98035.34;5004368;28;20460;-50
2023/03/14 05:45:11;;;;;;;0.40;0.20;;;;;;;10.85;100.00;98029.06;4991952;28;20450;-50
2023/03/14 05:47:37;;;;;;;0.30;0.20;;;;;;;10.91;100.00;98032.16;5004109;28;20532;-50
2023/03/14 05:50:04;;;;;;;0.57;0.50;;;;;;;11.02;100.00;98034.09;5003114;28;20530;-50
2023/03/14 05:52:30;;;;;;;0.30;0.20;;;;;;;10.90;100.00;98037.56;4984745;28;20468;-50
2023/03/14 05:54:56;;;;;;;0.40;0.20;;;;;;;10.96;99.95;98034.50;5003340;28;20486;-50
2023/03/14 05:57:23;;;;;;;0.30;0.20;;;;;;;10.98;100.00;98037.94;4997168;28;20494;-49
2023/03/14 05:59:49;;;;;;;1.07;1.07;;;;;;;10.86;100.00;98033.44;4997857;28;20955;-50
2023/03/14 06:02:16;;;;;;;2.60;0.40;;;;;;;10.91;100.00;98032.16;4992588;28;20492;-50
2023/03/14 06:04:42;;;;;;;0.30;0.20;;;;;;;10.96;100.00;98031.84;5003516;28;20461;-50
2023/03/14 06:07:09;;;;;;;0.40;0.30;;;;;;;11.31;99.94;98036.59;4997182;28;20961;-50
2023/03/14 06:09:35;;;;;;;1.63;0.43;;;;;;;11.05;99.58;98030.38;4997229;28;20454;-51
2023/03/14 06:12:02;;;;;;;1.43;0.30;;;;;;;11.22;99.71;98030.09;5003908;28;20452;-51
2023/03/14 06:14:28;;;;;;;0.60;0.60;;;;;;;11.22;99.16;98038.06;5003813;28;20497;-51
2023/03/14 06:16:54;;;;;;;0.50;0.50;;;;;;;11.21;99.75;98041.69;4997242;28;20452;-50
2023/03/14 06:19:21;;;;;;;0.40;0.30;;;;;;;11.10;99.56;98033.56;4997314;28;20854;-50
2023/03/14 06:21:47;;;;;;;15.33;0.70;;;;;;;11.11;99.72;98035.31;4983789;28;20496;-50
2023/03/14 06:24:14;;;;;;;0.40;0.40;;;;;;;11.21;99.97;98025.72;4995754;28;20457;-50
2023/03/14 06:26:40;;;;;;;3.07;0.30;;;;;;;11.25;99.22;98027.25;5003700;28;20457;-51
2023/03/14 06:29:06;;;;;;;0.40;0.30;;;;;;;11.23;99.17;98026.47;5003522;28;20514;-50
2023/03/14 06:31:33;;;;;;;2.40;0.33;;;;;;;11.20;99.34;98016.06;4971924;28;20471;-51
2023/03/14 06:33:59;;;;;;;0.40;0.20;;;;;;;11.22;99.66;98024.78;4997422;28;20452;-51
2023/03/14 06:36:26;;;;;;;1.20;0.50;;;;;;;11.26;99.35;98019.16;4984152;28;20463;-51
2023/03/14 06:38:52;;;;;;;0.30;0.20;;;;;;;11.26;99.18;98027.16;4996919;28;20982;-51
2023/03/14 06:41:19;;;;;;;0.40;0.20;;;;;;;11.42;99.00;98015.47;5003207;28;20500;-51
2023/03/14 06:43:45;;;;;;;0.40;0.30;;;;;;;11.41;99.53;98013.75;5003343;28;20498;-51
2023/03/14 06:46:12;;;;;;;0.70;0.50;;;;;;;11.35;99.27;98019.47;4997565;28;20964;-51
2023/03/14 06:48:38;;;;;;;0.70;0.47;;;;;;;11.52;98.32;98005.91;4996565;28;20450;-52
2023/03/14 06:51:06;;;;;;;0.30;0.20;;;;;;;11.57;98.30;98009.94;5001578;28;20465;-51
2023/03/14 06:53:32;;;;;;;0.40;0.30;;;;;;;11.42;99.00;98008.31;4997365;28;20453;-50
2023/03/14 06:55:59;;;;;;;1.00;1.00;;;;;;;11.36;99.30;98010.53;4997639;28;20452;-51
2023/03/14 06:58:25;;;;;;;3.27;0.40;;;;;;;11.46;99.87;98009.81;4996472;28;20460;-51
2023/03/14 07:00:53;;;;;;;0.40;0.30;;;;;;;11.57;99.88;98020.56;5002002;28;20492;-52
2023/03/14 07:03:19;;;;;;;0.40;0.30;;;;;;;11.55;99.91;98022.50;5003141;28;20513;-51
2023/03/14 07:05:46;;;;;;;0.43;0.30;;;;;;;11.46;99.78;98015.13;4997957;28;20456;-51
2023/03/14 07:08:12;;;;;;;0.57;0.53;;;;;;;11.37;100.00;98015.75;4995154;28;20449;-51
2023/03/14 07:10:39;;;;;;;1.53;0.43;;;;;;;11.31;100.00;98020.66;4998071;28;20530;-51
2023/03/14 07:13:05;;;;;;;4.00;0.50;;;;;;;11.47;100.00;98015.97;4996555;28;20458;-51
2023/03/14 07:15:32;;;;;;;0.97;0.93;;;;;;;11.44;100.00;98021.53;5001295;28;20487;-50
2023/03/14 07:17:58;;;;;;;0.50;0.47;;;;;;;11.56;100.00;98005.56;5002854;28;20453;-51
2023/03/14 07:20:25;;;;;;;1.90;0.80;;;;;;;11.37;100.00;98022.88;4998053;28;20472;-51
2023/03/14 07:22:51;;;;;;;0.40;0.20;;;;;;;11.39;100.00;98024.50;4995962;28;20878;-51
2023/03/14 07:25:18;;;;;;;0.50;0.30;;;;;;;11.54;100.00;98022.59;5000639;28;20997;-51
2023/03/14 07:27:45;;;;;;;0.47;0.30;;;;;;;11.61;100.00;98026.53;5002743;28;20490;-51
2023/03/14 07:30:12;;;;;;;0.50;0.40;;;;;;;11.49;100.00;98025.56;4998685;28;20500;-51
2023/03/14 07:32:39;;;;;;;0.40;0.30;;;;;;;11.51;100.00;98028.09;4995999;28;20446;-51
2023/03/14 07:35:06;;;;;;;0.40;0.27;;;;;;;11.62;100.00;98030.03;5000173;28;20449;-51
2023/03/14 07:37:33;;;;;;;0.40;0.40;;;;;;;11.52;100.00;98033.34;5002765;28;20459;-51
2023/03/14 07:39:59;;;;;;;1.30;0.70;;;;;;;11.60;100.00;98030.16;4999148;28;20525;-51
2023/03/14 07:42:26;;;;;;;2.63;0.60;;;;;;;11.72;100.00;98023.13;4996900;28;20500;-51
2023/03/14 07:44:52;;;;;;;0.40;0.30;;;;;;;11.74;100.00;98029.19;5003134;28;20461;-51
2023/03/14 07:47:18;;;;;;;0.40;0.40;;;;;;;11.76;100.00;98025.44;5006097;28;20452;-51
2023/03/14 07:49:45;;;;;;;3.03;0.60;;;;;;;11.85;100.00;98024.84;5002150;28;20987;-51
2023/03/14 07:52:11;;;;;;;0.60;0.50;;;;;;;11.73;100.00;98020.34;4988045;28;20454;-51
2023/03/14 07:54:38;;;;;;;1.40;0.50;;;;;;;12.02;100.00;98028.13;5002632;28;20452;-51
2023/03/14 07:57:04;;;;;;;1.07;0.90;;;;;;;12.00;100.00;98024.72;4998879;28;20457;-50
2023/03/14 07:59:30;;;;;;;0.50;0.50;;;;;;;12.01;100.00;98024.63;5002764;28;20454;-51
2023/03/14 08:01:57;;;;;;;7.10;1.10;;;;;;;12.09;100.00;98024.94;4993447;28;20568;-51
2023/03/14 08:04:23;;;;;;;0.37;0.30;;;;;;;12.15;100.00;98027.16;5002320;28;20452;-51
2023/03/14 08:06:50;;;;;;;0.93;0.90;;;;;;;12.24;100.00;98022.13;4999277;28;20448;-51
2023/03/14 08:09:16;;;;;;;0.50;0.50;;;;;;;12.12;99.72;98024.72;5002341;28;20476;-51
2023/03/14 08:11:43;;;;;;;3.50;0.40;;;;;;;12.25;99.85;98021.19;5005545;28;20470;-51
2023/03/14 08:14:10;;;;;;;0.43;0.40;;;;;;;12.27;99.91;98024.56;5002668;28;20452;-51
2023/03/14 08:16:37;;;;;;;0.40;0.30;;;;;;;12.16;99.39;98020.00;4998884;28;20461;-50
2023/03/14 08:19:03;;;;;;;0.93;0.47;;;;;;;12.16;99.66;98020.00;5002031;28;20541;-51
2023/03/14 08:21:30;;;;;;;0.60;0.60;;;;;;;12.13;99.54;98018.41;5005477;28;20500;-51
2023/03/14 08:23:56;;;;;;;0.40;0.37;;;;;;;12.10;99.99;98021.31;5002994;28;20505;-51
2023/03/14 08:26:23;;;;;;;0.90;0.90;;;;;;;12.18;100.00;98020.75;4998900;28;20456;-51
2023/03/14 08:28:49;;;;;;;0.40;0.30;;;;;;;12.28;100.00;98026.28;5000532;28;20453;-51
2023/03/14 08:31:16;;;;;;;1.40;0.90;;;;;;;12.39;100.00;98026.34;5005546;28;20477;-51
2023/03/14 08:33:43;;;;;;;0.50;0.50;;;;;;;12.29;100.00;98033.31;5002754;28;20486;-50
2023/03/14 08:36:09;;;;;;;3.67;0.70;;;;;;;12.54;99.19;98027.06;4998708;28;20457;-50
2023/03/14 08:38:36;;;;;;;0.30;0.20;;;;;;;12.53;99.40;98028.03;5001363;28;20453;-51
2023/03/14 08:41:03;;;;;;;0.50;0.43;;;;;;;12.52;98.37;98024.50;5005319;28;20480;-51
2023/03/14 08:43:30;;;;;;;0.63;0.53;;;;;;;12.41;98.75;98029.75;5003054;28;20489;-51
2023/03/14 08:45:58;;;;;;;0.43;0.30;;;;;;;12.48;97.88;98028.38;4998856;28;20444;-51
2023/03/14 08:48:25;;;;;;;0.40;0.30;;;;;;;12.26;98.31;98037.03;5000240;28;20484;-51
2023/03/14 08:50:51;;;;;;;0.43;0.30;;;;;;;12.51;97.78;98041.47;5004855;28;20853;-51
2023/03/14 08:53:18;;;;;;;1.77;0.67;;;;;;;12.37;98.23;98038.94;4984926;28;20461;-51
2023/03/14 08:55:44;;;;;;;4.43;0.50;;;;;;;12.28;98.92;98039.59;5004908;28;20540;-51
2023/03/14 08:58:11;;;;;;;0.50;0.40;;;;;;;12.49;98.46;98048.72;5003933;28;20461;-51
2023/03/14 09:00:37;;;;;;;3.47;1.03;;;;;;;12.47;98.05;98045.28;4998205;28;20523;-51
2023/03/14 09:03:04;;;;;;;0.40;0.33;;;;;;;12.48;97.51;98052.34;4987362;28;20497;-51
2023/03/14 09:05:33;;;;;;;0.40;0.30;;;;;;;12.49;97.82;98055.84;5004938;28;20931;-51
2023/03/14 09:08:00;;;;;;;0.63;0.30;;;;;;;12.40;97.53;98050.22;5004565;28;20448;-51
2023/03/14 09:10:26;;;;;;;1.83;0.40;;;;;;;12.43;97.68;98054.47;4998103;28;20473;-51
2023/03/14 09:12:52;;;;;;;0.40;0.40;;;;;;;12.39;97.71;98055.66;4998553;28;20445;-51
2023/03/14 09:15:19;;;;;;;0.40;0.30;;;;;;;12.46;98.15;98055.09;5005149;28;20489;-51
2023/03/14 09:17:45;;;;;;;0.40;0.30;;;;;;;12.49;97.33;98059.38;5004391;28;20460;-51
2023/03/14 09:20:14;;;;;;;0.50;0.40;;;;;;;12.46;98.12;98056.91;4998190;28;20472;-50
2023/03/14 09:22:40;;;;;;;0.47;0.30;;;;;;;12.44;98.12;98053.50;4997703;28;20496;-52
2023/03/14 09:25:07;;;;;;;0.40;0.30;;;;;;;12.44;97.92;98067.69;5003183;28;20481;-51
2023/03/14 09:27:34;;;;;;;0.40;0.30;;;;;;;12.52;98.06;98067.13;5004431;28;20795;-52
2023/03/14 09:30:00;;;;;;;0.40;0.30;;;;;;;12.50;98.00;98066.41;4998647;28;20507;-52
2023/03/14 09:32:27;;;;;;;0.53;0.40;;;;;;;12.50;98.63;98063.75;4998083;28;20484;-52
2023/03/14 09:34:53;;;;;;;0.40;0.30;;;;;;;12.62;97.95;98064.69;5004021;28;20529;-51
2023/03/14 09:37:20;;;;;;;0.40;0.30;;;;;;;12.55;97.21;98063.41;5004571;28;20459;-51
2023/03/14 09:39:47;;;;;;;0.50;0.30;;;;;;;12.79;96.55;98055.44;4998664;28;20449;-51
2023/03/14 09:42:17;;;;;;;0.60;0.40;;;;;;;12.88;96.58;98058.25;4997421;28;20490;-52
2023/03/14 09:45:03;;;;;;;0.40;0.40;;;;;;;12.93;96.52;98063.25;5003038;28;20442;-51
2023/03/14 09:47:30;;;;;;;6.70;0.33;;;;;;;12.81;96.33;98061.50;5004358;28;20455;-50
2023/03/14 09:49:57;;;;;;;0.40;0.30;;;;;;;12.75;95.85;98057.47;5002342;28;20881;-51
2023/03/14 09:52:36;;;;;;;12.70;0.57;;;;;;;12.73;96.91;98057.56;4985697;28;20450;-51
2023/03/14 09:55:06;;;;;;;0.30;0.20;;;;;;;12.84;95.98;98053.28;5004244;28;20532;-51
2023/03/14 09:57:35;;;;;;;0.40;0.30;;;;;;;12.90;95.91;98064.34;4985855;28;20459;-51
2023/03/14 10:00:13;;;;;;;0.40;0.30;;;;;;;13.02;96.36;98058.13;4997316;28;20474;-51
2023/03/14 10:02:45;;;;;;;10.63;0.47;;;;;;;13.17;97.65;98052.59;4989756;28;20520;-51
2023/03/14 10:05:18;;;;;;;8.13;0.60;;;;;;;13.30;98.27;98048.06;5003699;28;20480;-51
2023/03/14 10:07:45;;;;;;;0.40;0.30;;;;;;;13.15;97.54;98047.34;5002001;28;20453;-51
2023/03/14 10:10:18;;;;;;;1.33;1.23;;;;;;;13.28;98.12;98048.16;4997463;28;20497;-51
2023/03/14 10:12:47;;;;;;;6.00;0.40;;;;;;;13.20;98.04;98049.72;4998298;28;20445;-50
2023/03/14 10:15:23;;;;;;;0.30;0.20;;;;;;;13.14;97.29;98050.97;5003885;28;20541;-51
2023/03/14 10:17:51;;;;;;;0.30;0.20;;;;;;;13.06;97.18;98048.06;5003893;28;20455;-51
2023/03/14 10:20:36;;;;;;;20.73;0.50;;;;;;;13.30;96.88;98046.25;4998004;28;20487;-51
2023/03/14 10:23:06;;;;;;;0.73;0.30;;;;;;;13.25;97.34;98042.22;4996634;28;20499;-51
2023/03/14 10:25:37;;;;;;;0.40;0.30;;;;;;;13.08;97.81;98058.59;4999912;28;20450;-52
2023/03/14 10:28:04;;;;;;;0.40;0.30;;;;;;;13.24;97.12;98052.03;5003950;28;20919;-51
2023/03/14 10:30:44;;;;;;;0.47;0.30;;;;;;;13.33;97.46;98059.34;5001508;28;20933;-51
2023/03/14 10:33:20;;;;;;;0.40;0.23;;;;;;;13.24;97.42;98057.38;4996662;28;20448;-51
2023/03/14 10:36:01;;;;;;;0.30;0.20;;;;;;;13.18;97.90;98060.50;4996815;28;20503;-51
2023/03/14 10:38:36;;;;;;;0.40;0.30;;;;;;;13.17;97.85;98055.25;5000286;28;20450;-51
2023/03/14 10:41:16;;;;;;;0.40;0.20;;;;;;;13.28;98.16;98063.31;5003330;28;21040;-51
2023/03/14 10:43:43;;;;;;;0.40;0.30;;;;;;;13.37;98.55;98064.44;5003093;28;21001;-51
2023/03/14 10:46:15;;;;;;;0.37;0.30;;;;;;;13.33;99.23;98066.50;4984213;28;20453;-51
2023/03/14 10:48:45;;;;;;;0.30;0.20;;;;;;;13.41;98.38;98068.59;4996532;28;20456;-51
2023/03/14 10:51:18;;;;;;;0.40;0.30;;;;;;;13.50;98.70;98067.88;5000171;28;20560;-51
2023/03/14 10:53:59;;;;;;;0.30;0.20;;;;;;;13.58;98.02;98066.34;4973935;28;20438;-51
2023/03/14 10:56:27;;;;;;;0.93;0.93;;;;;;;13.73;97.37;98077.66;5001419;28;20930;-51
2023/03/14 10:58:57;;;;;;;0.30;0.30;;;;;;;13.81;96.04;98077.06;4996391;28;20946;-51
2023/03/14 11:02:03;;;;;;;0.40;0.30;;;;;;;13.57;97.36;98074.47;4998027;28;20477;-51
2023/03/14 11:05:11;;;;;;;6.37;0.43;;;;;;;13.63;96.34;98076.66;5008763;28;20452;-51
2023/03/14 11:07:44;;;;;;;0.30;0.20;;;;;;;13.89;96.88;98077.31;5000337;28;20446;-51
2023/03/14 11:10:35;;;;;;;0.40;0.20;;;;;;;13.68;97.85;98081.63;5003619;28;20465;-51
2023/03/14 11:13:15;;;;;;;0.40;0.30;;;;;;;13.82;98.47;98095.63;5003161;28;20441;-51
2023/03/14 11:15:51;;;;;;;0.40;0.20;;;;;;;13.59;98.43;98099.22;4999305;28;20509;-50
2023/03/14 11:18:33;;;;;;;0.93;0.40;;;;;;;13.79;98.72;98100.38;4999047;28;20447;-51
2023/03/14 11:21:12;;;;;;;0.40;0.30;;;;;;;13.68;100.00;98114.53;5000303;28;20465;-51
2023/03/14 11:24:03;;;;;;;0.90;0.30;;;;;;;13.23;100.00;98117.03;5001529;28;20498;-51
2023/03/14 11:26:41;;;;;;;0.50;0.50;;;;;;;12.95;100.00;98154.66;5000411;28;20456;-51
2023/03/14 11:29:28;;;;;;;0.40;0.40;;;;;;;12.71;100.00;98168.78;5000166;28;20445;-52
2023/03/14 11:32:01;;;;;;;0.30;0.20;;;;;;;12.58;100.00;98181.28;4975265;28;20541;-51
2023/03/14 11:34:51;;;;;;;0.30;0.20;;;;;;;12.59;100.00;98195.47;5003851;28;20449;-51